Terminal Aerodrome Forecast
Issued by NWS Billings, MT

Home | Current Version | Previous Version | Text Only | Print | Product List | Glossary On
Versions: 1 2 3 4 5 6 7 8 9 10 11 12 13 14 15 16 17 18 19 20 21 22 23 24 25 26 27 28
000
FTUS45 KBYZ 201127
TAFBIL
TAF
KBIL 201127Z 2012/2112 25014KT P6SM FEW150
     FM201400 22015G24KT P6SM BKN070
     FM201800 22018G31KT P6SM BKN080
     FM202100 25018G30KT P6SM VCSH BKN080
     FM210300 25010KT P6SM SCT080
     FM210600 27007KT P6SM VCSH BKN070=

USA.gov is the U.S. government's official web portal to all federal, state and local government web resources and services.